Temecula, CA (92591)

3:05 PM PDT on July 27, 2016 (GMT -0700)
Vintage Hills | | Change Station

Elev 1322 ft 33.51 °N, 117.09 °W | Updated 4 seconds ago

Clear
Clear
92.5 °F
Feels Like 92 °F
N
3.1
Wind Variable Wind from South
Gusts 13.0 mph

Today
High -- | Low -- °F
--% Chance of Precip.
Yesterday
High -- | Low -- °F
Precip. -- in
Pressure 29.86 in
Visibility 10.0 miles
Clouds Clear
Heat Index 92 °F
Dew Point 58 °F
Humidity 32%
Rainfall 0.00 in
Snow Depth Not available.
5:57 AM 7:51 PM
Last Quarter, 39% visible
METAR KRIV 272158Z 30014KT 10SM CLR 37/09 A2991 RMK AO2A SLP110 T03740091
Pressure 29.86 in
Visibility 10.0 miles
Clouds Clear
Heat Index 92 °F
Dew Point 58 °F
Humidity 32%
Rainfall 0.00 in
Snow Depth Not available.
5:57 AM 7:51 PM
Last Quarter, 39% visible
METAR KRIV 272158Z 30014KT 10SM CLR 37/09 A2991 RMK AO2A SLP110 T03740091

10-Day Weather Forecast

Almanac

Astronomy

Jul. 27, 2016 Rise Set
Actual Time
Civil Twilight
Nautical Twilight
Astronomical Twilight
Moon
Length of Visible Light
Length of Day
Tomorrow will be .
, % of the Moon is Illuminated

Today's Extremes

State Highs State Lows

Community

WunderPhotos

Upload Photos

1,927,944 photos uploaded!

WunderBlog® & News

Nearby

Air Quality

  Air Quality AQ Index Pollutant
Not available.

Snow Depth

Station Depth Elevation

Earthquake Activity

City Distance Mag. Time & Date
Minimum magnitude displayed is 2.5.

Coastal Water Temperatures

Place Temperature

Stations

Nearby Weather Stations

Station Location Temp. Windchill Dew Point Humidity Wind Precip. Elev Updated Type
                   

Watches & Warnings

There are currently no watches in effect.